Terminal Aerodrome Forecast
Issued by NWS Albuquerque, NM

Home | Current Version | Previous Version | Text Only | Print | Product List | Glossary On
Versions: 1 2 3 4 5 6 7 8 9 10 11 12 13 14
872
FTUS45 KABQ 290520
TAFABQ
TAF
KABQ 290520Z 2906/3006 13006KT P6SM SCT150
     FM291700 22005KT P6SM FEW150
     FM292200 10011KT P6SM VCTS SCT090CB
     FM300100 10014KT P6SM VCSH BKN100
     FM300400 09009KT P6SM SCT120=

USA.gov is the U.S. government's official web portal to all federal, state and local government web resources and services.